Time;durP1;ratioP1;P1;durP2;ratioP2;P2;SDS_P1;SDS_P2;PMS_P1;PMS_P2;Temp;Humidity;BMP_temperature;BMP_pressure;BME280_temperature;BME280_humidity;BME280_pressure;Samples;Min_cycle;Max_cycle;Signal;HPM_P1;HPM_P2
2023/12/21 00:01:53;;;;;;;24.63;15.10;;;12.80;99.90;;;;;;10483425;28;20236;-81
2023/12/21 00:06:55;;;;;;;12.77;8.73;;;12.50;99.90;;;;;;10474267;28;20707;-81
2023/12/21 00:11:58;;;;;;;25.77;15.97;;;12.60;99.90;;;;;;10449880;28;20287;-81
2023/12/21 00:17:00;;;;;;;29.00;15.67;;;12.30;99.90;;;;;;10450793;28;20222;-81
2023/12/21 00:22:03;;;;;;;17.83;8.93;;;11.90;99.90;;;;;;10437883;28;20228;-81
2023/12/21 00:27:06;;;;;;;10.53;5.27;;;11.90;99.90;;;;;;10408813;28;20259;-81
2023/12/21 00:32:08;;;;;;;17.03;10.80;;;11.70;99.90;;;;;;10438799;28;20238;-81
2023/12/21 00:37:14;;;;;;;15.07;9.83;;;11.90;99.90;;;;;;10448438;28;20227;-81
2023/12/21 00:42:16;;;;;;;14.27;8.00;;;12.30;99.90;;;;;;10447498;28;20222;-81
2023/12/21 00:47:19;;;;;;;18.00;11.97;;;12.20;99.90;;;;;;10447411;28;20230;-81
2023/12/21 00:52:21;;;;;;;13.03;7.30;;;11.70;99.90;;;;;;10445219;28;20226;-81
2023/12/21 00:57:24;;;;;;;16.37;10.93;;;11.50;99.90;;;;;;10447041;28;21096;-80
2023/12/21 01:02:26;;;;;;;13.37;5.80;;;11.00;99.90;;;;;;10454034;28;20259;-81
2023/12/21 01:07:29;;;;;;;10.70;6.63;;;11.60;99.90;;;;;;10459356;28;20234;-80
2023/12/21 01:12:32;;;;;;;19.20;11.03;;;10.60;99.90;;;;;;10460901;28;20924;-81
2023/12/21 01:17:35;;;;;;;15.23;8.33;;;10.40;99.90;;;;;;10463510;28;20697;-81
2023/12/21 01:22:37;;;;;;;17.20;10.40;;;10.40;99.90;;;;;;10502673;28;20243;-81
2023/12/21 01:27:41;;;;;;;8.93;3.80;;;10.20;99.90;;;;;;10494997;28;20311;-81
2023/12/21 01:32:44;;;;;;;8.50;5.20;;;10.00;99.90;;;;;;10462371;28;20260;-81
2023/12/21 01:37:47;;;;;;;13.30;8.27;;;9.90;99.90;;;;;;10473438;28;20306;-80
2023/12/21 01:42:50;;;;;;;8.13;5.40;;;9.50;99.90;;;;;;10503323;28;20267;-80
2023/12/21 01:47:53;;;;;;;12.50;7.67;;;9.50;99.90;;;;;;10489036;28;20273;-80
2023/12/21 01:52:59;;;;;;;10.77;7.20;;;9.30;99.90;;;;;;10501969;28;20256;-81
2023/12/21 01:58:01;;;;;;;15.63;11.10;;;9.10;99.90;;;;;;10484209;28;20688;-81
2023/12/21 02:03:05;;;;;;;8.97;5.73;;;9.10;99.90;;;;;;10502124;28;20640;-80
2023/12/21 02:08:08;;;;;;;10.40;6.20;;;9.10;99.90;;;;;;10484332;28;20230;-81
2023/12/21 02:13:10;;;;;;;7.03;4.53;;;8.70;99.90;;;;;;10501719;28;20233;-81
2023/12/21 02:18:15;;;;;;;10.53;6.10;;;8.80;99.90;;;;;;10433927;28;20309;-80
2023/12/21 02:23:19;;;;;;;10.27;5.40;;;8.80;99.90;;;;;;10439661;28;20285;-80
2023/12/21 02:28:22;;;;;;;9.33;4.57;;;8.70;99.90;;;;;;10454235;28;20262;-81
2023/12/21 02:33:25;;;;;;;4.87;3.10;;;8.50;99.90;;;;;;10455290;28;20242;-81
2023/12/21 02:38:28;;;;;;;3.03;2.60;;;7.90;99.90;;;;;;10454346;28;20256;-81
2023/12/21 02:43:30;;;;;;;9.00;6.07;;;8.30;99.90;;;;;;10458381;28;20230;-81
2023/12/21 02:48:33;;;;;;;3.77;2.87;;;8.00;99.90;;;;;;10456000;28;20226;-80
2023/12/21 02:53:35;;;;;;;7.87;5.67;;;7.60;99.90;;;;;;10458284;28;20616;-81
2023/12/21 02:58:39;;;;;;;5.60;4.00;;;7.50;99.90;;;;;;10435779;28;20648;-81
2023/12/21 03:03:42;;;;;;;5.10;3.97;;;7.50;99.90;;;;;;10423540;28;20223;-81
2023/12/21 03:08:44;;;;;;;5.03;3.90;;;7.20;99.90;;;;;;10494345;28;20241;-80
2023/12/21 03:13:47;;;;;;;4.70;3.13;;;7.20;99.90;;;;;;10487557;28;20215;-81
2023/12/21 03:18:50;;;;;;;11.33;7.60;;;;;;;;;;10422851;28;20716;-81
2023/12/21 03:23:52;;;;;;;5.53;4.00;;;6.80;99.90;;;;;;10417996;28;20308;-81
2023/12/21 03:28:54;;;;;;;10.20;6.20;;;6.80;99.90;;;;;;10451987;28;20222;-81
2023/12/21 03:33:57;;;;;;;5.63;5.10;;;6.50;99.90;;;;;;10451430;28;20702;-81
2023/12/21 03:39:00;;;;;;;6.20;4.77;;;6.80;99.90;;;;;;10452823;28;20304;-81
2023/12/21 03:44:02;;;;;;;7.50;3.40;;;6.80;99.90;;;;;;10493688;28;20242;-81
2023/12/21 03:49:05;;;;;;;4.90;4.27;;;6.60;99.90;;;;;;10460386;28;20280;-81
2023/12/21 03:54:08;;;;;;;5.13;4.67;;;6.60;99.90;;;;;;10453092;28;20279;-81
2023/12/21 03:59:11;;;;;;;4.23;3.83;;;6.70;99.90;;;;;;10450504;28;20254;-81
2023/12/21 04:04:14;;;;;;;5.37;4.87;;;6.60;99.90;;;;;;10451433;28;20674;-81
2023/12/21 04:09:16;;;;;;;4.73;4.23;;;6.50;99.90;;;;;;10418144;28;20302;-81
2023/12/21 04:14:19;;;;;;;5.63;5.10;;;6.50;99.90;;;;;;10409710;28;20266;-81
2023/12/21 04:19:21;;;;;;;6.63;4.80;;;6.50;99.90;;;;;;10431746;28;20258;-81
2023/12/21 04:24:24;;;;;;;8.97;6.47;;;6.50;99.90;;;;;;10451685;28;20251;-81
2023/12/21 04:29:26;;;;;;;6.43;4.97;;;6.60;99.90;;;;;;10449816;28;20234;-81
2023/12/21 04:34:28;;;;;;;4.80;4.07;;;6.50;99.90;;;;;;10465876;28;20238;-81
2023/12/21 04:39:31;;;;;;;8.57;6.20;;;6.90;99.90;;;;;;10449244;28;20784;-81
2023/12/21 04:44:33;;;;;;;4.10;3.70;;;7.20;99.90;;;;;;10449877;28;20303;-81
2023/12/21 04:49:36;;;;;;;10.00;6.20;;;7.10;99.90;;;;;;10448450;28;20237;-81
2023/12/21 04:54:40;;;;;;;10.37;6.97;;;7.20;99.90;;;;;;10449672;28;20246;-81
2023/12/21 04:59:42;;;;;;;11.83;6.60;;;7.60;99.90;;;;;;10449443;28;20258;-81
2023/12/21 05:04:45;;;;;;;11.40;7.20;;;8.00;99.90;;;;;;10449787;28;20284;-81
2023/12/21 05:09:48;;;;;;;14.93;8.03;;;7.50;99.90;;;;;;10429189;28;20230;-81
2023/12/21 05:14:50;;;;;;;13.07;8.00;;;7.60;99.90;;;;;;10462577;28;20220;-81
2023/12/21 05:19:53;;;;;;;9.40;6.80;;;7.90;99.90;;;;;;10408635;28;20254;-81
2023/12/21 05:24:55;;;;;;;14.67;7.13;;;8.20;99.90;;;;;;10448873;28;20262;-81
2023/12/21 05:29:58;;;;;;;9.27;6.43;;;8.40;99.90;;;;;;10462621;28;20205;-81
2023/12/21 05:35:00;;;;;;;8.57;6.00;;;9.00;99.90;;;;;;10485674;28;20585;-81
2023/12/21 05:40:04;;;;;;;11.30;7.07;;;9.30;99.90;;;;;;10448734;28;20323;-81
2023/12/21 05:45:07;;;;;;;8.90;6.83;;;9.90;99.90;;;;;;10442617;28;20287;-81
2023/12/21 05:50:10;;;;;;;7.50;5.30;;;10.90;99.90;;;;;;10444765;28;20239;-81
2023/12/21 05:55:15;;;;;;;6.00;4.73;;;11.10;99.90;;;;;;10425579;28;20238;-81
2023/12/21 06:00:18;;;;;;;6.70;4.70;;;11.40;99.90;;;;;;10445908;28;20259;-81
2023/12/21 06:05:21;;;;;;;6.97;5.90;;;;;;;;;;10447643;28;20846;-81
2023/12/21 06:10:24;;;;;;;8.10;6.23;;;12.50;99.90;;;;;;10464579;28;20261;-81
2023/12/21 06:15:26;;;;;;;8.20;5.70;;;12.60;99.90;;;;;;10494527;28;20272;-81
2023/12/21 06:20:30;;;;;;;6.90;5.40;;;13.00;99.90;;;;;;10445866;28;20250;-81
2023/12/21 06:25:32;;;;;;;5.67;4.60;;;13.30;99.90;;;;;;10456565;28;20249;-81
2023/12/21 06:30:39;;;;;;;7.87;5.03;;;13.80;99.90;;;;;;10455989;28;20243;-81
2023/12/21 06:35:41;;;;;;;6.27;4.50;;;14.00;99.90;;;;;;10449412;28;20230;-81
2023/12/21 06:40:44;;;;;;;4.70;3.10;;;13.90;99.90;;;;;;10438727;28;20304;-80
2023/12/21 06:45:49;;;;;;;7.30;4.30;;;14.00;99.90;;;;;;10458926;28;20222;-81
2023/12/21 06:50:51;;;;;;;4.10;3.43;;;14.30;99.90;;;;;;10473116;28;20221;-81
2023/12/21 06:55:54;;;;;;;3.03;1.53;;;14.40;99.90;;;;;;10450683;28;20230;-81
2023/12/21 07:01:16;;;;;;;3.20;1.07;;;14.30;99.90;;;;;;10446740;28;20790;-80
2023/12/21 07:06:19;;;;;;;2.97;2.03;;;13.80;99.90;;;;;;10449986;28;20322;-80
2023/12/21 07:11:22;;;;;;;3.27;2.00;;;13.50;99.90;;;;;;10454392;28;20238;-81
2023/12/21 07:16:25;;;;;;;3.23;1.33;;;13.20;99.90;;;;;;10450753;28;20284;-80
2023/12/21 07:21:28;;;;;;;4.37;2.13;;;12.90;99.90;;;;;;10451044;28;20317;-80
2023/12/21 07:26:31;;;;;;;3.83;2.47;;;12.80;99.90;;;;;;10449993;28;20250;-80
2023/12/21 07:31:34;;;;;;;3.87;1.97;;;12.80;99.90;;;;;;10448473;28;20228;-80
2023/12/21 07:36:36;;;;;;;3.23;1.87;;;13.00;99.90;;;;;;10449716;28;20619;-81
2023/12/21 07:41:39;;;;;;;2.60;1.40;;;12.40;99.90;;;;;;10449149;28;20285;-80
2023/12/21 07:46:42;;;;;;;3.07;1.60;;;12.90;99.90;;;;;;10448886;28;20220;-81
2023/12/21 07:51:45;;;;;;;5.90;3.40;;;12.40;99.90;;;;;;10450210;28;20223;-81
2023/12/21 07:56:48;;;;;;;5.90;1.73;;;11.90;99.90;;;;;;10448884;28;20226;-80
2023/12/21 08:01:50;;;;;;;6.63;3.77;;;12.30;99.90;;;;;;10448403;28;20281;-80
2023/12/21 08:06:53;;;;;;;2.23;1.40;;;12.00;99.90;;;;;;10448650;28;20223;-81
2023/12/21 08:11:55;;;;;;;2.13;1.53;;;11.80;99.90;;;;;;10447970;28;20227;-81
2023/12/21 08:16:59;;;;;;;2.97;1.97;;;12.40;99.90;;;;;;10449036;28;20726;-80
2023/12/21 08:22:02;;;;;;;3.00;1.80;;;12.60;99.90;;;;;;10449168;28;20255;-80
2023/12/21 08:27:06;;;;;;;2.70;1.00;;;12.70;99.90;;;;;;10448442;28;20971;-80
2023/12/21 08:32:08;;;;;;;3.10;2.10;;;13.20;99.90;;;;;;10446731;28;20252;-80
2023/12/21 08:37:12;;;;;;;2.83;2.30;;;13.00;99.90;;;;;;10447947;28;20234;-80
2023/12/21 08:42:15;;;;;;;1.47;0.70;;;13.00;99.90;;;;;;10448841;28;20701;-80
2023/12/21 08:47:18;;;;;;;2.27;0.57;;;13.10;99.90;;;;;;10448942;28;20233;-81
2023/12/21 08:52:21;;;;;;;2.40;1.67;;;13.90;99.90;;;;;;10453317;28;20597;-81
2023/12/21 08:57:23;;;;;;;3.13;1.27;;;13.90;99.90;;;;;;10452531;28;20806;-81
2023/12/21 09:02:26;;;;;;;1.97;1.23;;;14.20;99.90;;;;;;10489356;28;20254;-81
2023/12/21 09:07:29;;;;;;;2.60;1.77;;;14.30;99.90;;;;;;10469551;28;20242;-80
2023/12/21 09:12:31;;;;;;;2.00;1.23;;;14.50;99.90;;;;;;10457659;28;20269;-81
2023/12/21 09:17:34;;;;;;;1.70;1.07;;;14.50;99.90;;;;;;10489526;28;20225;-81
2023/12/21 09:22:37;;;;;;;3.10;1.10;;;14.70;99.90;;;;;;10489474;28;20657;-81
2023/12/21 09:27:39;;;;;;;1.27;0.77;;;14.60;99.90;;;;;;10474885;28;20258;-80
2023/12/21 09:32:42;;;;;;;2.27;1.50;;;14.50;99.90;;;;;;10456835;28;20239;-80
2023/12/21 09:37:45;;;;;;;2.40;1.60;;;14.70;99.90;;;;;;10455063;28;20288;-81
2023/12/21 09:42:51;;;;;;;1.87;1.13;;;14.20;99.90;;;;;;10456145;28;20722;-81
2023/12/21 09:48:13;;;;;;;5.30;2.17;;;14.10;99.90;;;;;;10484991;28;20191;-80
2023/12/21 09:53:16;;;;;;;5.30;2.70;;;14.00;99.90;;;;;;10496347;28;20775;-80
2023/12/21 09:58:19;;;;;;;3.40;1.87;;;13.80;99.90;;;;;;10497394;28;20244;-80
2023/12/21 10:03:21;;;;;;;1.83;1.37;;;13.80;99.90;;;;;;10497404;28;20253;-80
2023/12/21 10:08:24;;;;;;;2.17;1.60;;;13.70;99.90;;;;;;10456507;28;20280;-80
2023/12/21 10:13:26;;;;;;;2.20;1.40;;;13.30;99.90;;;;;;10460675;28;20697;-81
2023/12/21 10:18:30;;;;;;;1.73;0.90;;;13.10;99.90;;;;;;10452375;28;20226;-80
2023/12/21 10:23:32;;;;;;;1.83;1.60;;;13.30;99.90;;;;;;10478585;28;20715;-80
2023/12/21 10:28:35;;;;;;;2.27;1.37;;;13.30;99.90;;;;;;10458261;28;20234;-80
2023/12/21 10:33:37;;;;;;;4.23;2.27;;;13.30;99.90;;;;;;10470832;28;20295;-80
2023/12/21 10:38:41;;;;;;;7.03;2.20;;;12.90;99.90;;;;;;10494042;28;20307;-80
2023/12/21 10:43:44;;;;;;;5.37;2.73;;;12.40;99.90;;;;;;10441959;28;20297;-79
2023/12/21 10:48:48;;;;;;;3.13;2.40;;;12.20;99.90;;;;;;10453241;28;20223;-80
2023/12/21 10:53:52;;;;;;;2.20;0.87;;;12.00;99.90;;;;;;10465218;28;20619;-80
2023/12/21 10:58:55;;;;;;;4.40;2.20;;;12.00;99.90;;;;;;10493968;28;20249;-80
2023/12/21 11:03:59;;;;;;;8.63;2.73;;;12.00;99.90;;;;;;10493324;28;20245;-81
2023/12/21 11:09:06;;;;;;;5.43;2.50;;;11.60;99.90;;;;;;10483623;28;20261;-80
2023/12/21 11:14:09;;;;;;;5.10;2.47;;;11.90;99.90;;;;;;10452192;28;20238;-81
2023/12/21 11:19:16;;;;;;;7.77;3.10;;;11.50;99.90;;;;;;10451785;28;20300;-81
2023/12/21 11:24:23;;;;;;;2.80;1.40;;;11.10;99.90;;;;;;10455843;28;20262;-81
2023/12/21 11:29:27;;;;;;;7.33;1.93;;;11.30;99.90;;;;;;10492860;28;20794;-81
2023/12/21 11:34:39;;;;;;;4.80;2.57;;;11.60;99.90;;;;;;10492539;28;20291;-81
2023/12/21 11:39:43;;;;;;;4.63;2.37;;;11.50;99.90;;;;;;10483077;28;20288;-81
2023/12/21 11:44:52;;;;;;;4.77;2.50;;;11.70;99.90;;;;;;10449193;28;20242;-81
2023/12/21 11:50:06;;;;;;;3.60;1.43;;;11.20;99.90;;;;;;10451610;28;20284;-81
2023/12/21 11:55:09;;;;;;;5.03;2.33;;;11.30;99.90;;;;;;10451540;28;20288;-81
2023/12/21 12:00:16;;;;;;;7.87;3.00;;;11.30;99.90;;;;;;10451722;28;20250;-81
2023/12/21 12:05:22;;;;;;;3.23;2.20;;;11.10;99.90;;;;;;10449221;28;20224;-80
2023/12/21 12:10:25;;;;;;;2.87;1.40;;;11.30;99.90;;;;;;10477465;28;20315;-81
2023/12/21 12:15:29;;;;;;;5.70;1.93;;;11.40;99.90;;;;;;10490837;28;20235;-81
2023/12/21 12:20:31;;;;;;;2.93;2.00;;;11.30;99.90;;;;;;10459082;28;20308;-81
2023/12/21 12:25:34;;;;;;;3.73;1.97;;;11.20;99.90;;;;;;10447899;28;20254;-81
2023/12/21 12:30:48;;;;;;;3.27;1.73;;;11.20;99.90;;;;;;10455330;28;20808;-81
2023/12/21 12:35:51;;;;;;;1.70;1.10;;;11.10;99.90;;;;;;10459348;28;20236;-81
2023/12/21 12:40:54;;;;;;;2.07;1.30;;;11.60;99.90;;;;;;10449750;28;20323;-81
2023/12/21 12:45:58;;;;;;;3.20;1.80;;;11.90;99.90;;;;;;10461127;28;20253;-81
2023/12/21 12:51:01;;;;;;;3.27;2.10;;;12.00;99.90;;;;;;10461451;28;20632;-81
2023/12/21 12:56:04;;;;;;;6.43;2.87;;;11.80;99.90;;;;;;10467975;28;20252;-80
2023/12/21 13:01:07;;;;;;;1.80;1.30;;;12.10;99.90;;;;;;10465763;28;20266;-80
2023/12/21 13:06:09;;;;;;;2.27;1.47;;;12.00;99.90;;;;;;10447509;28;20438;-81
2023/12/21 13:11:20;;;;;;;3.17;2.20;;;12.60;99.90;;;;;;10447536;28;20235;-81
2023/12/21 13:16:24;;;;;;;2.17;1.57;;;12.00;99.90;;;;;;10447845;28;20230;-81
2023/12/21 13:21:26;;;;;;;2.60;1.43;;;12.10;99.90;;;;;;10467482;28;20662;-81
2023/12/21 13:26:29;;;;;;;2.93;1.63;;;12.00;99.90;;;;;;10471155;28;20319;-81
2023/12/21 13:31:31;;;;;;;2.10;1.17;;;12.00;99.90;;;;;;10456801;28;20283;-81
2023/12/21 13:36:34;;;;;;;3.27;1.53;;;11.90;99.90;;;;;;10474005;28;20252;-81
2023/12/21 13:41:37;;;;;;;2.33;1.07;;;11.90;99.90;;;;;;10485111;28;20311;-81
2023/12/21 13:46:39;;;;;;;2.07;1.50;;;12.30;99.90;;;;;;10469747;28;20229;-81
2023/12/21 13:51:42;;;;;;;2.63;1.50;;;12.70;99.90;;;;;;10456158;28;20308;-81
2023/12/21 13:56:45;;;;;;;2.30;0.80;;;12.50;99.90;;;;;;10470662;28;20234;-80
2023/12/21 14:01:51;;;;;;;2.03;1.17;;;12.80;99.90;;;;;;10482361;28;20258;-81
2023/12/21 14:06:54;;;;;;;1.87;1.27;;;12.70;99.90;;;;;;10483451;28;20230;-81
2023/12/21 14:11:56;;;;;;;1.87;1.20;;;12.70;99.90;;;;;;10471225;28;20680;-81
2023/12/21 14:16:59;;;;;;;1.63;1.20;;;13.00;99.90;;;;;;10449727;28;20261;-80
2023/12/21 14:22:02;;;;;;;6.53;2.97;;;13.60;99.90;;;;;;10439001;28;20256;-80
2023/12/21 14:27:05;;;;;;;1.13;0.90;;;13.00;99.90;;;;;;10466896;28;20251;-80
2023/12/21 14:32:07;;;;;;;1.93;1.13;;;13.70;99.90;;;;;;10464243;28;20276;-80
2023/12/21 14:37:13;;;;;;;1.77;1.23;;;14.00;99.90;;;;;;10458756;28;20234;-80
2023/12/21 14:42:15;;;;;;;3.10;1.60;;;13.80;99.90;;;;;;10445888;28;20290;-79
2023/12/21 14:47:18;;;;;;;1.90;0.93;;;14.00;99.90;;;;;;10433391;28;20258;-79
2023/12/21 14:52:21;;;;;;;1.57;0.80;;;13.80;99.90;;;;;;10487743;28;20238;-80
2023/12/21 14:57:23;;;;;;;1.50;0.93;;;14.10;99.90;;;;;;10475239;28;20230;-80
2023/12/21 15:02:26;;;;;;;2.90;0.80;;;14.10;99.90;;;;;;10452072;28;20331;-80
2023/12/21 15:07:28;;;;;;;3.13;1.20;;;14.30;99.90;;;;;;10483328;28;20237;-81
2023/12/21 15:12:31;;;;;;;2.73;1.23;;;13.90;99.90;;;;;;10449658;28;20212;-82
2023/12/21 15:17:35;;;;;;;4.93;2.77;;;13.90;99.90;;;;;;10411840;28;20327;-83
2023/12/21 15:22:37;;;;;;;3.03;1.90;;;13.40;99.90;;;;;;10432829;28;20262;-82
2023/12/21 15:27:40;;;;;;;2.77;1.90;;;13.50;99.90;;;;;;10452502;28;20641;-82
2023/12/21 15:32:42;;;;;;;6.63;3.20;;;13.30;99.90;;;;;;10450421;28;20231;-85
2023/12/21 15:37:45;;;;;;;17.30;8.53;;;13.40;99.90;;;;;;10451094;28;20292;-84
2023/12/21 15:42:49;;;;;;;14.20;9.33;;;13.50;99.90;;;;;;10450569;28;20345;-84
2023/12/21 15:47:51;;;;;;;13.20;8.73;;;13.00;99.90;;;;;;10449933;28;20258;-84
2023/12/21 15:52:54;;;;;;;25.03;11.77;;;13.00;99.90;;;;;;10413968;28;20738;-83
2023/12/21 15:57:57;;;;;;;22.77;13.20;;;13.20;99.90;;;;;;10445643;28;20655;-84
2023/12/21 16:03:00;;;;;;;28.37;12.57;;;13.40;99.90;;;;;;10449702;28;20250;-84
2023/12/21 16:08:02;;;;;;;37.20;17.60;;;13.70;99.90;;;;;;10452218;28;20293;-84
2023/12/21 16:13:05;;;;;;;38.57;19.30;;;13.90;99.90;;;;;;10449105;28;20246;-84
2023/12/21 16:18:08;;;;;;;33.73;17.70;;;14.20;99.90;;;;;;10452360;28;20273;-84
2023/12/21 16:23:13;;;;;;;58.43;28.13;;;14.30;99.90;;;;;;10450452;28;20254;-83
2023/12/21 16:28:16;;;;;;;56.40;27.67;;;14.10;99.90;;;;;;10449260;28;20262;-83
2023/12/21 16:33:19;;;;;;;42.90;22.07;;;14.00;99.90;;;;;;10444849;28;20241;-85
2023/12/21 16:38:21;;;;;;;46.37;19.40;;;14.00;99.90;;;;;;10471630;28;20268;-84
2023/12/21 16:43:24;;;;;;;54.57;28.57;;;14.40;99.90;;;;;;10459997;28;20266;-84
2023/12/21 16:48:27;;;;;;;34.20;18.43;;;14.10;99.90;;;;;;10433035;28;20562;-85
2023/12/21 16:53:29;;;;;;;52.23;25.03;;;14.30;99.90;;;;;;10456093;28;20231;-85
2023/12/21 16:58:32;;;;;;;6.20;3.80;;;14.10;99.90;;;;;;9741381;28;10000705;-83
2023/12/21 17:03:34;;;;;;;5.53;2.60;;;14.20;99.90;;;;;;10431491;28;20682;-83
2023/12/21 17:08:38;;;;;;;5.93;3.13;;;14.50;99.90;;;;;;10434653;28;20258;-84
2023/12/21 17:13:41;;;;;;;5.27;3.07;;;14.60;99.90;;;;;;10420843;28;20652;-83
2023/12/21 17:18:43;;;;;;;6.50;2.77;;;14.70;99.90;;;;;;10426379;28;20227;-83
2023/12/21 17:23:46;;;;;;;5.70;3.27;;;14.90;99.90;;;;;;10446597;28;20277;-82
2023/12/21 17:28:48;;;;;;;11.63;6.67;;;15.20;99.90;;;;;;10446711;28;20265;-83
2023/12/21 17:33:51;;;;;;;5.90;4.40;;;15.40;99.90;;;;;;10440616;28;20296;-83
2023/12/21 17:38:54;;;;;;;5.13;3.20;;;15.20;99.90;;;;;;10439891;28;20294;-83
2023/12/21 17:43:57;;;;;;;4.40;3.60;;;14.90;99.90;;;;;;10416386;28;20687;-84
2023/12/21 17:48:59;;;;;;;7.83;3.47;;;14.40;99.90;;;;;;10493552;28;20686;-84
2023/12/21 17:54:03;;;;;;;7.23;4.23;;;14.10;99.90;;;;;;10453964;28;20235;-84
2023/12/21 17:59:05;;;;;;;2.47;1.77;;;13.80;99.90;;;;;;10451974;28;20307;-84
2023/12/21 18:04:08;;;;;;;7.00;3.50;;;13.30;99.90;;;;;;10449664;28;20277;-84
2023/12/21 18:09:10;;;;;;;6.60;2.70;;;13.20;99.90;;;;;;10451121;28;20269;-84
2023/12/21 18:14:14;;;;;;;3.83;2.83;;;12.90;99.90;;;;;;10450990;28;20260;-84
2023/12/21 18:19:17;;;;;;;19.07;7.73;;;13.00;99.90;;;;;;10458314;28;20234;-83
2023/12/21 18:24:21;;;;;;;24.47;8.63;;;13.60;99.90;;;;;;10488109;28;20250;-82
2023/12/21 18:29:23;;;;;;;20.83;11.40;;;14.00;99.90;;;;;;10471542;28;20231;-82
2023/12/21 18:34:27;;;;;;;21.40;11.87;;;13.80;99.90;;;;;;10412476;28;20230;-82
2023/12/21 18:39:29;;;;;;;20.97;10.63;;;13.80;99.90;;;;;;10075635;28;10000626;-83
2023/12/21 18:44:32;;;;;;;20.27;11.57;;;14.00;99.90;;;;;;10451492;28;21036;-82
2023/12/21 18:49:35;;;;;;;28.33;14.43;;;13.90;99.90;;;;;;10451284;28;20310;-82
2023/12/21 18:54:37;;;;;;;22.20;11.60;;;14.00;99.90;;;;;;10429452;28;20238;-82
2023/12/21 18:59:40;;;;;;;18.47;8.97;;;14.70;99.90;;;;;;10447855;28;20272;-82
2023/12/21 19:04:43;;;;;;;34.00;14.90;;;;;;;;;;10450788;28;20301;-82
2023/12/21 19:09:45;;;;;;;40.23;18.07;;;15.60;99.90;;;;;;10444955;28;20238;-81
2023/12/21 19:14:49;;;;;;;19.83;9.33;;;15.60;99.90;;;;;;10448506;28;20264;-81
2023/12/21 19:19:51;;;;;;;17.53;9.80;;;15.30;99.90;;;;;;10446052;28;20237;-82
2023/12/21 19:24:54;;;;;;;23.93;12.03;;;15.40;99.90;;;;;;10430825;28;20316;-81
2023/12/21 19:29:56;;;;;;;19.67;9.67;;;15.50;99.90;;;;;;10420532;28;20233;-81
2023/12/21 19:34:59;;;;;;;23.07;11.13;;;15.40;99.90;;;;;;10449255;28;20238;-81
2023/12/21 19:40:03;;;;;;;14.40;6.47;;;15.70;99.90;;;;;;10437721;28;20649;-82
2023/12/21 19:45:06;;;;;;;30.30;10.33;;;15.00;99.90;;;;;;10458158;28;20253;-82
2023/12/21 19:50:09;;;;;;;20.73;10.13;;;15.10;99.90;;;;;;10461407;28;20233;-82
2023/12/21 19:55:15;;;;;;;23.03;10.00;;;15.30;99.90;;;;;;10447724;28;20267;-82
2023/12/21 20:00:17;;;;;;;13.77;8.20;;;15.60;99.90;;;;;;10447534;28;20634;-82
2023/12/21 20:05:20;;;;;;;14.63;7.53;;;15.80;99.90;;;;;;10449954;28;20300;-82
2023/12/21 20:10:23;;;;;;;11.07;4.53;;;15.60;99.90;;;;;;10458362;28;20307;-82
2023/12/21 20:15:25;;;;;;;19.60;10.37;;;15.40;99.90;;;;;;10445234;28;20238;-81
2023/12/21 20:20:28;;;;;;;14.53;6.80;;;15.50;99.90;;;;;;10448929;28;20647;-80
2023/12/21 20:25:30;;;;;;;10.87;5.43;;;15.80;99.90;;;;;;10439929;28;20251;-81
2023/12/21 20:30:36;;;;;;;15.17;7.37;;;15.70;99.90;;;;;;10424631;28;20237;-81
2023/12/21 20:35:39;;;;;;;11.90;6.03;;;15.80;99.90;;;;;;10419730;28;20281;-81
2023/12/21 20:40:41;;;;;;;14.57;7.10;;;15.50;99.90;;;;;;10442249;28;20265;-81
2023/12/21 20:45:44;;;;;;;15.73;6.33;;;15.20;99.90;;;;;;10447498;28;20261;-82
2023/12/21 20:50:46;;;;;;;16.13;6.33;;;15.10;99.90;;;;;;10447180;28;20230;-80
2023/12/21 20:55:49;;;;;;;8.87;4.37;;;15.30;99.90;;;;;;10445751;28;20248;-81
2023/12/21 21:00:51;;;;;;;11.47;5.57;;;15.00;99.90;;;;;;10447383;28;20675;-81
2023/12/21 21:05:54;;;;;;;16.00;7.27;;;15.40;99.90;;;;;;10449578;28;20701;-81
2023/12/21 21:10:57;;;;;;;9.60;4.80;;;15.50;99.90;;;;;;10429559;28;20269;-81
2023/12/21 21:15:59;;;;;;;8.33;4.80;;;15.50;99.90;;;;;;10447029;28;20249;-81
2023/12/21 21:21:02;;;;;;;11.83;5.97;;;15.20;99.90;;;;;;10449239;28;20676;-80
2023/12/21 21:26:05;;;;;;;13.00;5.17;;;15.60;99.90;;;;;;10454648;28;20276;-81
2023/12/21 21:31:17;;;;;;;6.63;3.40;;;15.90;99.90;;;;;;10452373;28;20370;-81
2023/12/21 21:36:21;;;;;;;8.47;3.90;;;15.90;99.90;;;;;;10459608;28;20208;-80
2023/12/21 21:41:24;;;;;;;11.03;4.00;;;15.50;99.90;;;;;;10459137;28;20272;-82
2023/12/21 21:46:26;;;;;;;16.13;7.30;;;15.40;99.90;;;;;;10461146;28;20268;-81
2023/12/21 21:51:31;;;;;;;11.83;7.07;;;15.50;99.90;;;;;;10457208;28;20201;-81
2023/12/21 21:56:33;;;;;;;16.50;7.53;;;15.80;99.90;;;;;;10430580;28;20230;-81
2023/12/21 22:01:36;;;;;;;19.97;9.57;;;16.00;99.90;;;;;;10459521;28;20207;-82
2023/12/21 22:06:38;;;;;;;10.90;6.40;;;15.60;99.90;;;;;;10465932;28;20221;-82
2023/12/21 22:11:41;;;;;;;15.70;7.13;;;16.00;99.90;;;;;;10478521;28;20264;-82
2023/12/21 22:16:44;;;;;;;14.37;7.73;;;15.40;99.90;;;;;;10468974;28;20578;-84
2023/12/21 22:21:48;;;;;;;18.90;7.00;;;15.40;99.90;;;;;;10470087;28;20264;-81
2023/12/21 22:26:50;;;;;;;14.83;7.47;;;15.30;99.90;;;;;;10464006;28;20230;-81
2023/12/21 22:31:53;;;;;;;11.23;6.00;;;14.90;99.90;;;;;;10472904;28;20194;-82
2023/12/21 22:36:56;;;;;;;10.67;6.07;;;15.20;99.90;;;;;;10486529;28;20224;-81
2023/12/21 22:41:58;;;;;;;20.67;7.43;;;15.40;99.90;;;;;;10498405;28;20736;-81
2023/12/21 22:47:01;;;;;;;10.63;4.97;;;15.30;99.90;;;;;;10503555;28;20246;-82
2023/12/21 22:52:03;;;;;;;9.30;4.13;;;15.20;99.90;;;;;;10502074;28;20851;-81
2023/12/21 22:57:06;;;;;;;5.17;2.73;;;15.40;99.90;;;;;;10451105;28;20270;-81
2023/12/21 23:02:08;;;;;;;8.90;4.03;;;15.40;99.90;;;;;;10417212;28;20210;-81
2023/12/21 23:07:11;;;;;;;11.67;4.90;;;14.80;99.90;;;;;;10429695;28;20219;-81
2023/12/21 23:12:15;;;;;;;10.47;4.97;;;15.30;99.90;;;;;;10468366;28;20202;-82
2023/12/21 23:17:17;;;;;;;8.07;3.53;;;15.10;99.90;;;;;;10499488;28;20210;-82
2023/12/21 23:22:20;;;;;;;11.27;4.33;;;15.20;99.90;;;;;;10486288;28;20205;-83
2023/12/21 23:27:23;;;;;;;7.13;3.67;;;15.50;99.90;;;;;;10457388;28;20265;-82
2023/12/21 23:32:26;;;;;;;9.80;3.93;;;15.60;99.90;;;;;;10456937;28;20246;-83
2023/12/21 23:37:32;;;;;;;4.97;2.97;;;15.60;99.90;;;;;;10439866;28;20231;-82
2023/12/21 23:42:35;;;;;;;8.80;4.27;;;15.40;99.90;;;;;;10415227;28;20579;-82
2023/12/21 23:47:37;;;;;;;8.90;3.63;;;15.40;99.90;;;;;;10415543;28;20259;-82
2023/12/21 23:52:40;;;;;;;6.23;2.77;;;15.40;99.90;;;;;;10429134;28;20202;-82
2023/12/21 23:57:43;;;;;;;10.80;4.27;;;16.00;99.90;;;;;;10454007;28;20201;-82
